Pagrindinis puslapis
METAR-TAF:

METAR-TAF

Oro uostai :

Kajena, Prancūzijos Gviana

platuma: 04-50N, ilguma: 052-22W, Aukštis: 105 m

Dabartinis oras

Ataskaita buvo paskelbta 28 minutes, ne 08:30 UTC
Vėjas 2 kt iš Vakarų/Pietvakarių
Temperatūra 22°C
Drėgmė 94%
Slėgis 1012 hPa
Matomumas 10 km arba daugiau
Mažai debesys ne aukštis 3300 ft
Išsisklaidę debesys ne aukštis 5000 ft
Su prošvaistėmis ne aukštis 6200 ft

METAR: SOCA 270830Z AUTO 24002KT 9999 FEW033 SCT050 BKN062 22/21 Q1012 NOSIG

Laikas: 05:58 (08:58 UTC)

Prognozė

Ataskaita buvo paskelbta 3 valandos ir 58 minutes, ne 05:00 UTC
Prognozė galioja nuo 27 metu 06 UTC su 28 metu 06 UTC
Vėjas 2 kt nuo kintamojo kryptimis
Matomumas 10 km arba daugiau
Mažai debesys ne aukštis 2300 ft
Nuo 27 metu 1200 UTC
Vėjas 12 kt iš Šiaurės/Šiaurės Rytų
Matomumas 10 km arba daugiau
Išsisklaidę debesys ne aukštis 3000 ft
Tapsmas
nuo 27 metu 23 UTC su 28 metu 01 UTC
Vėjas 2 kt nuo kintamojo kryptimis

TAF: SOCA 270500Z 2706/2806 VRB02KT 9999 FEW023 FM271200 02012KT 9999 SCT030 BECMG 2723/2801 VRB02KT

Orai ataskaitas ir orų prognozės (METAR, TAF).

turimą stotys yra geltonos ir raudonos taškus žemėlapyje.

Perkelti pele per norėdami pamatyti stoties vardą.

Tada spustelėkite, norėdami matyti oro stebėjimo ir prognozės.

Norėdami pakeisti žemėlapį: spustelėkite ant žalios mygtukų su juodo kryžiaus žemyn,; žalią mygtuką su brūkšneliu, jei norite nutolinti; arba žalių rodyklių gretimoms žemėlapius.


METAR-TAF: